CYOWMDPP

Guest
Details From CYOW - Ottawa Macdonald Cartier Intl
To MDPP - Puerto Plata Gregorio Luperon Intl
Flight Number -
Tags Decoded
Created
Modified
Stats Distance 1,574 nm / 2,916 km
Max Altitude 12,000 ft / 3,658 m
Waypoints 3
Social Downloads 2
Likes 0
Share VATSIM

Download

Looking for another format? Having issues loading an existing format? Contact us
Advertisement - Login to hide

Notes

Decoded

Route

CYOW BAATT MDPP

ID Type Via Altitude Latitude Longitude Leg Dist Tot Dist Heading (true) Name
O CYOW APT - 0 ft / 0 m 45.32611˚ -75.68903˚ - 0 nm - -
BAATT FIX - 12,000 ft / 3,658 m 36.89750˚ -75.99278˚ 506 nm 506 nm 182° / 181° -
O MDPP APT - 0 ft / 0 m 19.75384˚ -70.58409˚ 1068 nm 1574 nm 163° / 166° -

Altitude Profile

Advertisement - Login to hide

Weather


0- 5 10 15 20 25 30 35+ Temperature / ° C

Clouds and Precipitation
Forecast for 2018-05-28 00:00 UTC. Updated 2 hours ago

Ground ~20,000 ft ~40,000 ft Winds

CYOW

Details ICAO CYOW (YOW)
Name Ottawa Macdonald Cartier Intl
Region Canada
Timezone America/Toronto (UTC-4.0)
Stats Elevation 374 ft / 114 m (AMSL)
Location 45.322817° -75.671438°
Runways 3
Magnetic Variation 13.223° W

METAR

CYOW 280100Z 14008KT 15SM FEW034 BKN140 BKN220 21/17 A2995 RMK SC1AC5CI1 SLP143 DENSITY ALT 1100FT

Decode

TAF

TAF CYOW 272338Z 2800/2824 VRB03KT P6SM FEW040 SCT110 BKN190 TEMPO 2800/2802 P6SM -SHRA BKN040 OVC110 FM280200 16008KT P6SM SCT040 BKN230 FM280800 15007KT P6SM -SHRA BKN015 OVC080 FM281300 25005KT P6SM BKN015 FM281700 24005KT P6SM SCT030 FM282200 25008KT P6SM -SHRA BKN050 PROB30 2822/2824 VRB20G30KT 1SM +TSRA BR BKN050CB RMK NXT FCST BY 280300Z

Decode

Departure Runways

ID Width Length Bearing (true) Bearing (mag) Surface Threshold Offset Overrun Length
04 75 ft / 23 m 3,304 ft / 1,007 m 25.50° 38.72° Asphalt 0 ft / 0 m 0 ft / 0 m
07 200 ft / 61 m 8,011 ft / 2,442 m 57.16° 70.38° Asphalt 0 ft / 0 m 150 ft / 46 m
14 200 ft / 61 m 9,978 ft / 3,041 m 126.44° 139.66° Asphalt 0 ft / 0 m 150 ft / 46 m
22 75 ft / 23 m 3,304 ft / 1,007 m 205.50° 218.72° Asphalt 0 ft / 0 m 0 ft / 0 m
25 200 ft / 61 m 8,011 ft / 2,442 m 237.18° 250.40° Asphalt 0 ft / 0 m 155 ft / 47 m
32 200 ft / 61 m 9,978 ft / 3,041 m 306.46° 319.68° Asphalt 0 ft / 0 m 150 ft / 46 m

MDPP

Details ICAO MDPP (POP)
Name Puerto Plata Gregorio Luperon Intl
Region Dominican Republic
Timezone America/Santo_Domingo (UTC-4.0)
Stats Elevation 15 ft / 5 m (AMSL)
Location 19.757900° -70.570035°
Runways 1
Magnetic Variation 11.260° W

METAR

MDPP 280100Z 00000KT 9999 FEW017 BKN070 26/23 Q1015

Decode

TAF

Not found

Destination Runways

ID Width Length Bearing (true) Bearing (mag) Surface Threshold Offset Overrun Length
08 151 ft / 46 m 10,101 ft / 3,079 m 72.95° 84.21° Asphalt 0 ft / 0 m 0 ft / 0 m
26 151 ft / 46 m 10,101 ft / 3,079 m 252.95° 264.21° Asphalt 0 ft / 0 m 0 ft / 0 m

Popular Alternatives